createdAt,value
2022-11-08T00:00:40.594Z,91.00
2022-11-08T00:03:09.347Z,91.12
2022-11-08T00:05:57.223Z,91.34
2022-11-08T00:08:43.383Z,91.47
2022-11-08T00:11:29.755Z,91.30
2022-11-08T00:14:01.024Z,91.58
2022-11-08T00:16:30.456Z,91.86
2022-11-08T00:18:59.188Z,91.79
2022-11-08T00:21:29.472Z,91.95
2022-11-08T00:23:58.039Z,91.64
2022-11-08T00:26:26.809Z,91.65
2022-11-08T00:28:55.447Z,91.84
2022-11-08T00:31:24.120Z,91.85
2022-11-08T00:33:52.741Z,91.86
2022-11-08T00:36:21.353Z,91.76
2022-11-08T00:38:51.397Z,92.33
2022-11-08T00:41:20.309Z,91.95
2022-11-08T00:43:48.913Z,92.01
2022-11-08T00:46:17.562Z,92.00
2022-11-08T00:48:46.146Z,92.34
2022-11-08T00:51:15.352Z,92.15
2022-11-08T00:53:43.960Z,91.76
2022-11-08T00:56:14.890Z,91.72
2022-11-08T00:58:44.027Z,91.60
2022-11-08T01:01:16.252Z,91.67
2022-11-08T01:03:49.984Z,91.64
2022-11-08T01:06:23.258Z,91.16
2022-11-08T01:08:52.454Z,91.08
2022-11-08T01:11:26.128Z,91.40
2022-11-08T01:13:59.135Z,91.93
2022-11-08T01:16:31.315Z,91.69
2022-11-08T01:19:01.531Z,92.00
2022-11-08T01:21:30.983Z,91.73
2022-11-08T01:23:59.882Z,91.98
2022-11-08T01:26:31.467Z,91.88
2022-11-08T01:29:00.768Z,92.28
2022-11-08T01:31:32.993Z,91.45
2022-11-08T01:34:02.181Z,91.65
2022-11-08T01:36:31.492Z,91.90
2022-11-08T01:39:00.135Z,92.33
2022-11-08T01:41:30.139Z,91.78
2022-11-08T01:44:00.680Z,91.27
2022-11-08T01:46:46.201Z,91.79
2022-11-08T01:49:41.522Z,91.53
2022-11-08T01:52:33.263Z,91.09
2022-11-08T01:55:13.986Z,91.42
2022-11-08T01:57:51.325Z,91.29
2022-11-08T02:00:20.455Z,91.45
2022-11-08T02:02:58.134Z,91.08
2022-11-08T02:05:29.571Z,91.60
2022-11-08T02:08:07.654Z,91.83
2022-11-08T02:10:39.608Z,91.25
2022-11-08T02:13:15.356Z,91.04
2022-11-08T02:15:44.744Z,90.80
2022-11-08T02:18:15.501Z,90.91
2022-11-08T02:20:59.724Z,91.03
2022-11-08T02:23:42.251Z,91.14
2022-11-08T02:26:11.070Z,90.37
2022-11-08T02:28:40.896Z,91.64
2022-11-08T02:31:11.147Z,91.16
2022-11-08T02:33:40.410Z,91.36
2022-11-08T02:36:12.067Z,91.50
2022-11-08T02:38:47.100Z,91.58
2022-11-08T02:41:16.607Z,91.43
2022-11-08T02:43:45.313Z,91.42
2022-11-08T02:46:14.103Z,91.14
2022-11-08T02:48:42.714Z,91.19
2022-11-08T02:51:11.352Z,91.52
2022-11-08T02:53:39.900Z,91.44
2022-11-08T02:56:10.160Z,91.67
2022-11-08T02:58:38.989Z,91.68
2022-11-08T03:01:07.933Z,91.37
2022-11-08T03:03:36.584Z,91.41
2022-11-08T03:06:05.668Z,92.95
2022-11-08T03:08:34.269Z,93.05
2022-11-08T03:11:02.927Z,93.69
2022-11-08T03:13:33.066Z,93.99
2022-11-08T03:16:04.993Z,92.95
2022-11-08T03:18:33.731Z,93.28
2022-11-08T03:21:02.695Z,92.38
2022-11-08T03:23:32.512Z,92.92
2022-11-08T03:26:03.725Z,93.42
2022-11-08T03:28:34.526Z,94.31
2022-11-08T03:31:03.176Z,96.00
2022-11-08T03:33:31.874Z,95.68
2022-11-08T03:36:00.496Z,95.89
2022-11-08T03:38:29.202Z,96.19
2022-11-08T03:40:57.867Z,96.62
2022-11-08T03:43:27.869Z,96.80
2022-11-08T03:45:58.045Z,97.30
2022-11-08T03:48:26.689Z,96.59
2022-11-08T03:50:55.329Z,96.33
2022-11-08T03:53:23.910Z,96.10
2022-11-08T03:55:52.529Z,96.62
2022-11-08T03:58:21.436Z,96.62
2022-11-08T04:00:50.312Z,96.79
2022-11-08T04:03:20.443Z,96.95
2022-11-08T04:05:49.152Z,97.22
2022-11-08T04:08:18.047Z,96.85
2022-11-08T04:10:46.924Z,96.89
2022-11-08T04:13:32.794Z,96.86
2022-11-08T04:16:01.600Z,96.64
2022-11-08T04:18:49.038Z,98.64
2022-11-08T04:21:21.932Z,98.47
2022-11-08T04:23:53.520Z,98.30
2022-11-08T04:26:24.482Z,97.01
2022-11-08T04:28:53.235Z,97.28
2022-11-08T04:31:21.947Z,97.40
2022-11-08T04:33:52.219Z,96.47
2022-11-08T04:36:21.022Z,96.22
2022-11-08T04:38:50.666Z,96.68
2022-11-08T04:41:21.850Z,95.97
2022-11-08T04:43:51.921Z,96.46
2022-11-08T04:46:24.349Z,95.77
2022-11-08T04:48:57.097Z,96.20
2022-11-08T04:51:28.098Z,96.25
2022-11-08T04:53:58.778Z,96.15
2022-11-08T04:56:29.694Z,96.05
2022-11-08T04:59:00.953Z,95.54
2022-11-08T05:01:32.358Z,96.91
2022-11-08T05:04:02.491Z,97.85
2022-11-08T05:06:32.973Z,97.97
2022-11-08T05:09:02.043Z,97.06
2022-11-08T05:11:31.987Z,96.44
2022-11-08T05:14:00.675Z,96.17
2022-11-08T05:16:31.968Z,96.01
2022-11-08T05:19:02.825Z,96.43
2022-11-08T05:21:49.660Z,95.93
2022-11-08T05:24:19.623Z,95.98
2022-11-08T05:26:50.358Z,95.89
2022-11-08T05:29:19.815Z,95.64
2022-11-08T05:34:31.431Z,94.97
2022-11-08T05:37:00.009Z,94.72
2022-11-08T05:39:32.071Z,94.73
2022-11-08T05:42:01.248Z,93.97
2022-11-08T05:44:30.004Z,94.24
2022-11-08T05:46:58.663Z,93.75
2022-11-08T05:49:27.292Z,93.75
2022-11-08T05:51:57.369Z,93.26
2022-11-08T05:54:26.226Z,93.20
2022-11-08T05:56:56.029Z,92.84
2022-11-08T05:59:31.836Z,92.69
2022-11-08T06:02:00.648Z,92.26
2022-11-08T06:04:29.538Z,92.32
2022-11-08T06:06:59.474Z,91.88
2022-11-08T06:09:28.186Z,91.85
2022-11-08T06:11:56.997Z,92.30
2022-11-08T06:14:26.120Z,92.71
2022-11-08T06:16:54.938Z,92.41
2022-11-08T06:19:23.859Z,91.83
2022-11-08T06:21:52.522Z,91.33
2022-11-08T06:24:22.646Z,92.05
2022-11-08T06:26:51.476Z,92.06
2022-11-08T06:29:20.428Z,91.87
2022-11-08T06:31:49.113Z,91.99
2022-11-08T06:34:17.926Z,92.27
2022-11-08T06:36:46.554Z,92.17
2022-11-08T06:39:15.250Z,91.82
2022-11-08T06:41:45.280Z,92.55
2022-11-08T06:44:13.852Z,92.02
2022-11-08T06:46:42.432Z,92.25
2022-11-08T06:49:11.132Z,92.32
2022-11-08T06:51:39.820Z,92.04
2022-11-08T06:54:17.543Z,92.47
2022-11-08T06:56:48.397Z,92.58
2022-11-08T06:59:17.066Z,92.55
2022-11-08T07:01:46.110Z,92.77
2022-11-08T07:04:14.810Z,92.24
2022-11-08T07:06:43.454Z,92.60
2022-11-08T07:09:12.501Z,92.65
2022-11-08T07:11:41.078Z,92.40
2022-11-08T07:14:11.052Z,92.63
2022-11-08T07:16:39.623Z,92.55
2022-11-08T07:19:08.205Z,92.42
2022-11-08T07:21:36.773Z,92.25
2022-11-08T07:24:05.714Z,92.56
2022-11-08T07:26:34.325Z,93.13
2022-11-08T07:29:02.911Z,92.95
2022-11-08T07:31:32.948Z,93.19
2022-11-08T07:34:01.581Z,93.26
2022-11-08T07:36:30.135Z,93.67
2022-11-08T07:39:02.413Z,93.39
2022-11-08T07:41:34.012Z,93.49
2022-11-08T07:44:02.685Z,93.72
2022-11-08T07:46:32.973Z,94.09
2022-11-08T07:49:01.522Z,93.83
2022-11-08T07:51:30.104Z,94.18
2022-11-08T07:54:02.818Z,94.25
2022-11-08T07:56:32.066Z,94.44
2022-11-08T07:59:00.664Z,94.87
2022-11-08T08:01:29.396Z,94.99
2022-11-08T08:04:02.029Z,95.44
2022-11-08T08:06:30.615Z,95.65
2022-11-08T08:08:59.199Z,96.12
2022-11-08T08:11:33.292Z,96.17
2022-11-08T08:14:02.333Z,95.97
2022-11-08T08:16:30.927Z,96.16
2022-11-08T08:18:59.565Z,96.88
2022-11-08T08:21:29.661Z,96.79
2022-11-08T08:23:58.321Z,96.80
2022-11-08T08:26:26.957Z,96.95
2022-11-08T08:28:55.724Z,97.64
2022-11-08T08:31:24.340Z,97.67
2022-11-08T08:33:52.929Z,98.08
2022-11-08T08:36:21.561Z,97.78
2022-11-08T08:38:51.524Z,98.52
2022-11-08T08:41:20.229Z,98.65
2022-11-08T08:43:48.820Z,98.87
2022-11-08T08:46:17.505Z,98.96
2022-11-08T08:48:46.256Z,99.78
2022-11-08T08:51:14.798Z,99.92
2022-11-08T08:53:43.372Z,100.00
2022-11-08T08:56:13.373Z,100.00
2022-11-08T08:58:42.336Z,99.54
2022-11-08T09:04:00.413Z,98.38
2022-11-08T09:06:29.008Z,98.70
2022-11-08T09:08:57.558Z,98.34
2022-11-08T09:11:27.625Z,98.48
2022-11-08T09:13:56.401Z,98.81
2022-11-08T09:16:24.979Z,99.69
2022-11-08T09:18:53.609Z,99.90
2022-11-08T09:21:22.429Z,99.97
2022-11-08T09:23:51.038Z,100.00
2022-11-08T09:26:19.635Z,100.00
2022-11-08T09:28:49.651Z,100.00
2022-11-08T09:31:18.416Z,100.00
2022-11-08T09:33:50.760Z,100.00
2022-11-08T09:36:19.466Z,100.00
2022-11-08T09:38:48.112Z,100.00
2022-11-08T09:41:55.935Z,100.00
2022-11-08T09:44:55.498Z,100.00
2022-11-08T09:47:30.048Z,100.00
2022-11-08T09:50:14.045Z,100.00
2022-11-08T09:52:45.950Z,100.00
2022-11-08T09:55:28.981Z,100.00
2022-11-08T09:58:20.362Z,100.00
2022-11-08T10:00:53.276Z,100.00
2022-11-08T10:03:25.783Z,100.00
2022-11-08T10:06:21.998Z,100.00
2022-11-08T10:09:01.493Z,100.00
2022-11-08T10:12:03.093Z,99.26
2022-11-08T10:14:54.079Z,99.23
2022-11-08T10:17:51.734Z,99.23
2022-11-08T10:20:35.695Z,99.58
2022-11-08T10:23:21.634Z,99.05
2022-11-08T10:25:57.201Z,97.13
2022-11-08T10:28:35.597Z,96.23
2022-11-08T10:31:05.456Z,96.49
2022-11-08T10:33:43.781Z,96.69
2022-11-08T10:36:21.190Z,95.82
2022-11-08T10:39:03.375Z,95.60
2022-11-08T10:41:45.312Z,95.25
2022-11-08T10:44:19.900Z,95.00
2022-11-08T10:46:53.955Z,95.14
2022-11-08T10:49:27.729Z,95.71
2022-11-08T10:51:59.306Z,95.56
2022-11-08T10:54:46.487Z,95.13
2022-11-08T10:57:17.995Z,94.89
2022-11-08T10:59:48.081Z,94.51
2022-11-08T11:02:28.959Z,94.26
2022-11-08T11:05:28.581Z,93.90
2022-11-08T11:08:06.046Z,93.18
2022-11-08T11:10:38.250Z,93.48
2022-11-08T11:13:12.893Z,91.69
2022-11-08T11:15:48.805Z,91.60
2022-11-08T11:18:37.694Z,91.14
2022-11-08T11:21:14.906Z,91.44
2022-11-08T11:23:48.184Z,91.11
2022-11-08T11:26:32.365Z,91.12
2022-11-08T11:29:18.265Z,90.10
2022-11-08T11:31:50.917Z,89.24
2022-11-08T11:34:53.967Z,88.56
2022-11-08T11:37:40.167Z,88.50
2022-11-08T11:40:20.928Z,88.64
2022-11-08T11:43:03.185Z,88.28
2022-11-08T11:45:41.930Z,88.38
2022-11-08T11:48:18.663Z,88.54
2022-11-08T11:50:49.653Z,88.35
2022-11-08T11:53:23.997Z,88.43
2022-11-08T11:56:27.231Z,88.17
2022-11-08T11:59:33.318Z,87.43
2022-11-08T12:02:38.518Z,85.55
2022-11-08T12:05:49.908Z,85.77
2022-11-08T12:08:51.055Z,86.02
2022-11-08T12:11:50.271Z,86.43
2022-11-08T12:14:50.197Z,85.95
2022-11-08T12:17:59.673Z,86.25
2022-11-08T12:20:48.388Z,84.45
2022-11-08T12:24:02.042Z,85.08
2022-11-08T12:26:38.480Z,84.87
2022-11-08T12:29:26.008Z,85.30
2022-11-08T12:32:23.946Z,85.60
2022-11-08T12:35:19.737Z,85.69
2022-11-08T12:38:10.496Z,85.58
2022-11-08T12:40:53.050Z,86.08
2022-11-08T12:43:51.126Z,86.48
2022-11-08T12:46:22.900Z,86.82
2022-11-08T12:49:19.771Z,87.24
2022-11-08T12:52:06.543Z,88.04
2022-11-08T12:54:40.825Z,88.13
2022-11-08T12:57:17.781Z,87.66
2022-11-08T12:59:53.152Z,87.78
2022-11-08T13:02:27.817Z,87.61
2022-11-08T13:05:03.794Z,87.42
2022-11-08T13:07:51.723Z,87.23
2022-11-08T13:10:34.284Z,86.51
2022-11-08T13:13:26.148Z,84.62
2022-11-08T13:16:15.866Z,84.79
2022-11-08T13:18:50.856Z,85.19
2022-11-08T13:21:43.303Z,85.21
2022-11-08T13:24:45.694Z,85.42
2022-11-08T13:27:42.845Z,85.20
2022-11-08T13:30:41.032Z,85.30
2022-11-08T13:33:23.072Z,85.88
2022-11-08T13:36:10.981Z,86.18
2022-11-08T13:38:56.144Z,86.03
2022-11-08T13:41:27.132Z,86.03
2022-11-08T13:43:57.030Z,85.82
2022-11-08T13:46:50.001Z,83.92
2022-11-08T13:49:24.308Z,84.47
2022-11-08T13:52:45.832Z,83.97
2022-11-08T13:55:49.259Z,83.49
2022-11-08T13:58:37.185Z,84.25
2022-11-08T14:01:08.879Z,84.12
2022-11-08T14:03:57.709Z,84.25
2022-11-08T14:06:36.645Z,84.69
2022-11-08T14:09:33.192Z,84.95
2022-11-08T14:12:13.174Z,85.10
2022-11-08T14:14:55.996Z,85.35
2022-11-08T14:17:46.169Z,85.36
2022-11-08T14:20:32.510Z,85.64
2022-11-08T14:23:16.250Z,85.80
2022-11-08T14:25:52.422Z,85.69
2022-11-08T14:28:27.963Z,85.94
2022-11-08T14:30:57.664Z,87.37
2022-11-08T14:33:29.734Z,89.72
2022-11-08T14:36:02.851Z,89.28
2022-11-08T14:38:35.412Z,89.33
2022-11-08T14:41:08.509Z,89.77
2022-11-08T14:43:46.323Z,90.07
2022-11-08T14:46:21.836Z,92.50
2022-11-08T14:48:54.168Z,93.06
2022-11-08T14:51:23.278Z,92.23
2022-11-08T14:53:53.749Z,91.15
2022-11-08T14:56:26.225Z,90.83
2022-11-08T14:58:57.539Z,90.28
2022-11-08T15:01:29.062Z,92.13
2022-11-08T15:04:01.167Z,93.57
2022-11-08T15:06:37.111Z,94.56
2022-11-08T15:09:08.332Z,93.12
2022-11-08T15:11:43.241Z,97.85
2022-11-08T15:14:19.843Z,96.77
2022-11-08T15:16:51.460Z,94.73
2022-11-08T15:19:31.069Z,93.94
2022-11-08T15:22:01.780Z,93.06
2022-11-08T15:24:39.783Z,92.66
2022-11-08T15:27:17.904Z,92.49
2022-11-08T15:29:53.075Z,91.65
2022-11-08T15:32:23.742Z,91.67
2022-11-08T15:34:57.168Z,91.38
2022-11-08T15:37:35.334Z,91.21
2022-11-08T15:40:08.715Z,91.41
2022-11-08T15:42:47.835Z,90.85
2022-11-08T15:45:27.041Z,91.12
2022-11-08T15:48:11.320Z,90.16
2022-11-08T15:50:40.024Z,89.90
2022-11-08T15:53:09.265Z,90.12
2022-11-08T15:55:48.820Z,90.12
2022-11-08T15:58:29.123Z,90.14
2022-11-08T16:01:00.205Z,89.91
2022-11-08T16:03:30.048Z,90.00
2022-11-08T16:05:59.247Z,89.60
2022-11-08T16:08:28.375Z,89.84
2022-11-08T16:11:02.051Z,89.73
2022-11-08T16:13:36.244Z,89.21
2022-11-08T16:16:12.593Z,89.67
2022-11-08T16:18:43.012Z,89.71
2022-11-08T16:21:13.397Z,89.20
2022-11-08T16:23:43.240Z,89.08
2022-11-08T16:26:17.845Z,89.45
2022-11-08T16:28:48.435Z,89.45
2022-11-08T16:31:19.271Z,89.36
2022-11-08T16:33:48.522Z,89.01
2022-11-08T16:36:21.977Z,89.22
2022-11-08T16:38:54.025Z,89.49
2022-11-08T16:41:24.914Z,89.43
2022-11-08T16:43:56.546Z,89.49
2022-11-08T16:46:26.195Z,89.72
2022-11-08T16:49:00.329Z,89.90
2022-11-08T16:51:30.597Z,89.89
2022-11-08T16:53:59.736Z,89.29
2022-11-08T16:56:29.123Z,89.45
2022-11-08T16:58:59.998Z,89.87
2022-11-08T17:01:35.673Z,89.38
2022-11-08T17:04:04.641Z,90.13
2022-11-08T17:06:33.419Z,89.88
2022-11-08T17:09:02.549Z,89.86
2022-11-08T17:11:31.257Z,89.36
2022-11-08T17:14:02.223Z,89.38
2022-11-08T17:16:31.379Z,89.87
2022-11-08T17:19:00.004Z,89.41
2022-11-08T17:21:45.671Z,89.42
2022-11-08T17:24:21.148Z,89.69
2022-11-08T17:26:51.635Z,89.01
2022-11-08T17:29:22.041Z,89.21
2022-11-08T17:31:51.158Z,89.38
2022-11-08T17:34:20.111Z,89.73
2022-11-08T17:36:52.692Z,89.64
2022-11-08T17:39:21.530Z,89.97
2022-11-08T17:41:50.302Z,89.12
2022-11-08T17:44:19.365Z,89.09
2022-11-08T17:46:50.465Z,89.08
2022-11-08T17:49:19.929Z,89.03
2022-11-08T17:51:49.239Z,89.33
2022-11-08T17:54:19.200Z,89.08
2022-11-08T17:56:48.001Z,89.36
2022-11-08T17:59:17.234Z,88.68
2022-11-08T18:01:46.063Z,89.35
2022-11-08T18:04:17.121Z,88.99
2022-11-08T18:06:46.178Z,89.96
2022-11-08T18:09:15.406Z,89.29
2022-11-08T18:11:47.904Z,89.36
2022-11-08T18:14:17.695Z,89.07
2022-11-08T18:16:49.351Z,88.99
2022-11-08T18:19:20.249Z,89.05
2022-11-08T18:21:50.515Z,89.65
2022-11-08T18:24:51.394Z,89.97
2022-11-08T18:27:20.547Z,89.31
2022-11-08T18:31:10.778Z,89.56
2022-11-08T18:34:33.071Z,89.56
2022-11-08T18:37:03.956Z,89.71
2022-11-08T18:39:34.055Z,89.72
2022-11-08T18:42:02.848Z,89.91
2022-11-08T18:44:31.621Z,90.11
2022-11-08T18:47:14.049Z,90.34
2022-11-08T18:49:59.683Z,90.39
2022-11-08T18:52:28.964Z,90.42
2022-11-08T18:54:58.078Z,90.57
2022-11-08T18:57:26.855Z,90.40
2022-11-08T19:00:00.667Z,90.75
2022-11-08T19:02:43.387Z,90.73
2022-11-08T19:05:23.906Z,91.06
2022-11-08T19:07:53.358Z,91.22
2022-11-08T19:10:24.022Z,91.15
2022-11-08T19:12:53.360Z,90.97
2022-11-08T19:15:27.320Z,91.15
2022-11-08T19:17:56.340Z,91.17
2022-11-08T19:20:30.504Z,91.16
2022-11-08T19:22:59.330Z,91.71
2022-11-08T19:25:34.074Z,91.36
2022-11-08T19:28:04.055Z,91.56
2022-11-08T19:30:32.867Z,91.54
2022-11-08T19:33:02.708Z,91.83
2022-11-08T19:35:33.182Z,91.71
2022-11-08T19:38:02.365Z,91.50
2022-11-08T19:40:32.731Z,91.46
2022-11-08T19:43:01.644Z,92.10
2022-11-08T19:45:30.533Z,92.29
2022-11-08T19:48:21.480Z,92.49
2022-11-08T19:50:51.879Z,91.96
2022-11-08T19:53:20.739Z,92.30
2022-11-08T19:55:59.800Z,92.59
2022-11-08T19:58:42.171Z,92.23
2022-11-08T20:01:15.181Z,92.59
2022-11-08T20:04:06.636Z,92.52
2022-11-08T20:07:30.014Z,92.39
2022-11-08T20:09:59.077Z,92.47
2022-11-08T20:12:28.046Z,92.44
2022-11-08T20:14:58.231Z,92.58
2022-11-08T20:17:27.283Z,92.49
2022-11-08T20:19:58.058Z,92.41
2022-11-08T20:22:27.486Z,92.71
2022-11-08T20:24:58.110Z,92.63
2022-11-08T20:27:27.358Z,92.23
2022-11-08T20:29:56.273Z,92.50
2022-11-08T20:32:25.210Z,92.66
2022-11-08T20:34:55.265Z,92.53
2022-11-08T20:37:26.812Z,92.71
2022-11-08T20:39:57.381Z,93.14
2022-11-08T20:42:29.405Z,93.13
2022-11-08T20:44:59.363Z,93.11
2022-11-08T20:47:28.345Z,92.94
2022-11-08T20:49:57.324Z,93.03
2022-11-08T20:52:27.131Z,92.96
2022-11-08T20:54:57.477Z,92.87
2022-11-08T20:57:26.369Z,93.00
2022-11-08T21:00:06.977Z,93.21
2022-11-08T21:02:41.435Z,93.63
2022-11-08T21:05:13.474Z,93.33
2022-11-08T21:10:47.801Z,92.96
2022-11-08T21:13:18.015Z,92.82
2022-11-08T21:15:47.418Z,92.62
2022-11-08T21:18:18.450Z,92.86
2022-11-08T21:20:48.534Z,92.87
2022-11-08T21:23:18.279Z,93.14
2022-11-08T21:25:52.190Z,92.83
2022-11-08T21:28:21.147Z,93.24
2022-11-08T21:30:51.096Z,93.42
2022-11-08T21:33:20.152Z,93.44
2022-11-08T21:35:51.150Z,93.49
2022-11-08T21:38:21.329Z,93.49
2022-11-08T21:40:52.409Z,93.79
2022-11-08T21:43:22.591Z,93.62
2022-11-08T21:45:51.366Z,93.37
2022-11-08T21:48:20.520Z,93.42
2022-11-08T21:50:49.629Z,93.27
2022-11-08T21:53:18.344Z,93.53
2022-11-08T21:55:58.611Z,93.41
2022-11-08T21:58:27.437Z,93.38
2022-11-08T22:00:56.211Z,93.37
2022-11-08T22:03:25.014Z,93.51
2022-11-08T22:05:53.660Z,93.65
2022-11-08T22:08:22.319Z,93.65
2022-11-08T22:10:51.030Z,94.00
2022-11-08T22:13:21.567Z,93.58
2022-11-08T22:15:50.547Z,93.93
2022-11-08T22:18:30.774Z,93.85
2022-11-08T22:21:25.855Z,93.89
2022-11-08T22:23:54.553Z,93.58
2022-11-08T22:26:23.272Z,93.73
2022-11-08T22:28:53.400Z,93.56
2022-11-08T22:31:22.246Z,93.89
2022-11-08T22:33:51.091Z,93.94
2022-11-08T22:36:20.387Z,93.95
2022-11-08T22:38:49.245Z,93.62
2022-11-08T22:41:19.104Z,94.20
2022-11-08T22:43:49.844Z,93.97
2022-11-08T22:46:20.565Z,94.04
2022-11-08T22:48:49.499Z,94.22
2022-11-08T22:51:18.652Z,94.12
2022-11-08T22:53:47.515Z,94.35
2022-11-08T22:56:16.167Z,94.40
2022-11-08T22:58:44.864Z,94.57
2022-11-08T23:01:16.036Z,94.64
2022-11-08T23:03:48.998Z,94.58
2022-11-08T23:06:17.759Z,94.97
2022-11-08T23:08:48.989Z,95.49
2022-11-08T23:11:35.371Z,95.88
2022-11-08T23:14:22.016Z,95.68
2022-11-08T23:16:50.739Z,95.80
2022-11-08T23:19:41.896Z,95.45
2022-11-08T23:22:32.869Z,95.14
2022-11-08T23:25:01.942Z,95.25
2022-11-08T23:27:47.776Z,95.47
2022-11-08T23:30:37.365Z,95.03
2022-11-08T23:33:07.117Z,94.88
2022-11-08T23:35:37.402Z,94.75
2022-11-08T23:38:06.178Z,95.04
2022-11-08T23:40:52.353Z,95.34
2022-11-08T23:43:38.939Z,95.30
2022-11-08T23:46:10.818Z,95.09
2022-11-08T23:48:41.064Z,94.72
2022-11-08T23:51:11.227Z,94.76
2022-11-08T23:53:40.297Z,94.82
2022-11-08T23:56:09.301Z,94.85
2022-11-08T23:58:38.006Z,94.81
